Time;durP1;ratioP1;P1;durP2;ratioP2;P2;SDS_P1;SDS_P2;PMS_P1;PMS_P2;Temp;Humidity;BMP_temperature;BMP_pressure;BME280_temperature;BME280_humidity;BME280_pressure;Samples;Min_cycle;Max_cycle;Signal;HPM_P1;HPM_P2
2022/12/30 00:00:36;;;;;;;18.67;3.47;;;6.10;99.90;;;;;;5047495;28;20136;-77
2022/12/30 00:03:02;;;;;;;19.73;4.10;;;6.00;99.90;;;;;;5050477;28;20044;-77
2022/12/30 00:05:28;;;;;;;20.50;3.88;;;6.00;99.90;;;;;;5046232;28;20045;-78
2022/12/30 00:07:53;;;;;;;21.05;3.65;;;6.00;99.90;;;;;;5088502;28;20048;-77
2022/12/30 00:10:19;;;;;;;22.00;4.88;;;6.00;99.90;;;;;;5042271;28;20064;-77
2022/12/30 00:35:11;;;;;;;22.70;3.58;;;5.90;99.90;;;;;;5041526;28;20605;-77
2022/12/30 00:37:37;;;;;;;25.70;5.38;;;5.90;99.90;;;;;;5029261;28;20114;-77
2022/12/30 00:40:02;;;;;;;21.73;3.88;;;7.20;99.90;;;;;;5045699;28;20744;-77
2022/12/30 00:45:12;;;;;;;22.53;4.23;;;7.30;99.90;;;;;;5043732;28;20045;-78
2022/12/30 00:47:38;;;;;;;25.02;4.35;;;5.80;99.90;;;;;;5048080;28;20279;-78
2022/12/30 00:58:17;;;;;;;26.38;4.80;;;5.70;99.90;;;;;;5038628;28;20044;-78
2022/12/30 01:00:43;;;;;;;16.60;3.03;;;5.70;99.90;;;;;;5043698;28;20045;-77
2022/12/30 01:03:08;;;;;;;28.65;4.32;;;4.10;99.90;;;;;;5030535;28;20264;-77
2022/12/30 01:05:38;;;;;;;24.55;4.55;;;5.60;99.90;;;;;;5065525;28;20575;-77
2022/12/30 01:08:03;;;;;;;28.90;4.32;;;7.30;99.90;;;;;;5030118;28;20099;-76
2022/12/30 01:10:29;;;;;;;25.58;3.95;;;5.60;99.90;;;;;;5023874;28;20636;-78
2022/12/30 01:12:55;;;;;;;23.77;4.13;;;5.60;99.90;;;;;;5039777;28;20060;-77
2022/12/30 01:15:20;;;;;;;23.58;3.90;;;6.40;99.90;;;;;;5043338;28;20728;-78
2022/12/30 01:17:46;;;;;;;27.85;4.55;;;5.60;99.90;;;;;;5041753;28;20044;-77
2022/12/30 01:20:12;;;;;;;21.30;3.30;;;7.20;99.90;;;;;;5046438;28;20106;-78
2022/12/30 01:22:37;;;;;;;21.25;3.58;;;5.50;99.90;;;;;;5016423;28;20049;-76
2022/12/30 01:25:03;;;;;;;22.38;4.35;;;5.40;99.90;;;;;;5038126;28;20044;-77
2022/12/30 01:27:30;;;;;;;24.33;4.07;;;5.50;99.90;;;;;;5025910;28;20537;-78
2022/12/30 01:29:56;;;;;;;28.58;3.47;;;5.50;99.90;;;;;;5047837;28;20056;-77
2022/12/30 01:32:22;;;;;;;24.35;4.38;;;5.50;99.90;;;;;;5045419;28;20044;-78
2022/12/30 01:34:51;;;;;;;26.13;3.42;;;6.10;99.90;;;;;;5030882;28;20095;-77
2022/12/30 01:37:17;;;;;;;20.92;3.08;;;5.50;99.90;;;;;;5048935;28;20045;-77
2022/12/30 01:39:42;;;;;;;30.77;4.40;;;5.50;99.90;;;;;;5050145;28;20041;-76
2022/12/30 01:42:20;;;;;;;23.00;3.45;;;6.70;99.90;;;;;;5018818;28;20045;-76
2022/12/30 01:44:57;;;;;;;20.95;3.90;;;5.50;99.90;;;;;;5022427;28;20048;-77
2022/12/30 01:47:27;;;;;;;21.30;3.42;;;5.60;99.90;;;;;;5053994;28;21162;-78
2022/12/30 01:49:58;;;;;;;25.20;4.57;;;5.60;99.90;;;;;;5052432;28;20050;-77
2022/12/30 01:52:26;;;;;;;19.02;4.32;;;6.70;99.90;;;;;;5054829;28;20107;-78
2022/12/30 01:54:59;;;;;;;19.48;3.95;;;5.70;99.90;;;;;;5051726;28;20050;-78
2022/12/30 01:57:25;;;;;;;18.70;3.83;;;6.00;99.90;;;;;;5041881;28;20041;-78
2022/12/30 01:59:51;;;;;;;19.35;3.00;;;5.60;99.90;;;;;;5040272;28;20485;-78
2022/12/30 02:02:17;;;;;;;34.05;4.47;;;5.70;99.90;;;;;;5045607;28;20053;-79
2022/12/30 02:04:43;;;;;;;20.00;4.35;;;6.90;99.90;;;;;;5040362;28;20029;-78
2022/12/30 02:07:27;;;;;;;26.70;4.25;;;5.90;99.90;;;;;;5028598;28;20040;-77
2022/12/30 02:09:54;;;;;;;32.67;4.25;;;6.30;99.90;;;;;;5049842;28;20052;-76
2022/12/30 02:12:20;;;;;;;29.08;4.47;;;7.20;99.90;;;;;;5037590;28;20037;-76
2022/12/30 02:14:47;;;;;;;20.25;3.67;;;6.20;99.90;;;;;;5043462;28;20547;-77
2022/12/30 02:17:36;;;;;;;22.92;2.67;;;7.00;99.90;;;;;;5049171;28;20124;-77
2022/12/30 02:20:51;;;;;;;19.45;3.63;;;5.70;99.90;;;;;;5031645;28;20076;-76
2022/12/30 02:23:39;;;;;;;17.92;3.30;;;5.70;99.90;;;;;;5037257;28;20063;-77
2022/12/30 02:26:19;;;;;;;27.08;3.60;;;5.70;99.90;;;;;;5059857;28;20060;-77
2022/12/30 02:29:30;;;;;;;24.63;3.45;;;5.60;99.90;;;;;;5030141;28;20045;-77
2022/12/30 02:32:09;;;;;;;25.70;3.35;;;5.70;99.90;;;;;;5029842;28;20057;-77
2022/12/30 02:34:53;;;;;;;22.85;3.60;;;5.60;99.90;;;;;;5046866;28;20044;-76
2022/12/30 02:37:27;;;;;;;23.67;4.10;;;5.60;99.90;;;;;;5045884;28;20041;-77
2022/12/30 02:40:19;;;;;;;25.88;4.47;;;5.70;99.90;;;;;;5063076;28;20051;-77
2022/12/30 02:45:46;;;;;;;23.30;3.22;;;6.10;99.90;;;;;;5043255;28;20080;-77
2022/12/30 02:48:28;;;;;;;21.30;3.13;;;5.60;99.90;;;;;;5038225;28;20052;-78
2022/12/30 02:53:41;;;;;;;27.55;4.53;;;6.20;99.90;;;;;;5046430;28;20088;-80
2022/12/30 02:56:08;;;;;;;25.70;3.28;;;5.60;99.90;;;;;;5044413;28;20044;-78
2022/12/30 03:03:56;;;;;;;28.85;4.20;;;5.60;99.90;;;;;;5030029;28;20033;-77
2022/12/30 03:04:50;;;;;;;22.90;2.78;;;5.50;99.90;;;;;;5045630;28;20036;-79
2022/12/30 03:07:22;;;;;;;21.15;4.05;;;6.10;99.90;;;;;;5086810;28;20473;-80
2022/12/30 03:13:10;;;;;;;19.92;2.92;;;5.50;99.90;;;;;;5046268;28;20045;-78
2022/12/30 03:15:49;;;;;;;24.50;3.35;;;5.50;99.90;;;;;;5029535;28;20744;-79
2022/12/30 03:18:16;;;;;;;17.45;3.90;;;5.90;99.90;;;;;;5032091;28;20067;-78
2022/12/30 03:20:43;;;;;;;29.80;3.33;;;5.40;99.90;;;;;;5028260;28;20036;-79
2022/12/30 03:28:45;;;;;;;25.38;3.58;;;5.40;99.90;;;;;;5043444;28;20416;-78
2022/12/30 03:31:13;;;;;;;24.42;3.67;;;5.30;99.90;;;;;;5028687;28;20041;-78
2022/12/30 03:33:39;;;;;;;29.40;3.92;;;5.30;99.90;;;;;;5046491;28;20512;-77
2022/12/30 03:36:26;;;;;;;24.70;3.25;;;5.30;99.90;;;;;;5043975;28;20059;-78
2022/12/30 03:39:16;;;;;;;21.63;3.47;;;5.40;99.90;;;;;;5024679;28;20048;-77
2022/12/30 03:41:45;;;;;;;20.17;3.60;;;6.50;99.90;;;;;;5074286;28;20041;-78
2022/12/30 03:44:12;;;;;;;17.08;3.65;;;5.30;99.90;;;;;;5045493;28;20041;-78
2022/12/30 03:46:40;;;;;;;17.30;3.13;;;7.00;99.90;;;;;;5043109;28;20072;-78
2022/12/30 03:49:06;;;;;;;16.08;3.53;;;6.10;99.90;;;;;;5025343;28;20049;-78
2022/12/30 03:51:32;;;;;;;21.23;3.03;;;5.20;99.90;;;;;;5066333;28;20068;-78
2022/12/30 03:53:57;;;;;;;13.48;3.00;;;5.30;99.90;;;;;;5033709;28;20766;-77
2022/12/30 03:56:23;;;;;;;28.73;4.10;;;5.20;99.90;;;;;;5056572;28;20044;-77
2022/12/30 03:58:48;;;;;;;17.63;3.10;;;5.20;99.90;;;;;;5064142;28;20053;-78
2022/12/30 04:01:14;;;;;;;20.60;3.50;;;6.70;99.90;;;;;;5051229;28;20032;-78
2022/12/30 04:03:40;;;;;;;17.70;4.03;;;6.20;99.90;;;;;;5034380;28;20041;-77
2022/12/30 04:06:06;;;;;;;19.10;3.78;;;5.10;99.90;;;;;;5052714;28;20033;-76
2022/12/30 04:08:32;;;;;;;21.98;3.85;;;5.10;99.90;;;;;;5051224;28;20056;-78
2022/12/30 04:10:57;;;;;;;19.58;2.85;;;5.10;99.90;;;;;;5065953;28;20098;-78
2022/12/30 04:13:23;;;;;;;17.95;3.45;;;5.00;99.90;;;;;;5050172;28;20039;-78
2022/12/30 04:15:50;;;;;;;16.63;3.13;;;5.20;99.90;;;;;;5049431;28;20565;-77
2022/12/30 04:18:17;;;;;;;29.45;3.88;;;4.00;99.90;;;;;;5052724;28;20049;-77
2022/12/30 04:20:43;;;;;;;18.23;3.50;;;5.00;99.90;;;;;;5049167;28;20041;-76
2022/12/30 04:23:08;;;;;;;24.35;3.10;;;5.00;99.90;;;;;;5052933;28;20052;-77
2022/12/30 04:25:34;;;;;;;18.65;3.05;;;5.00;99.90;;;;;;5035860;28;20063;-78
2022/12/30 04:28:00;;;;;;;10.57;2.95;;;5.30;99.90;;;;;;5055350;28;20037;-77
2022/12/30 04:30:25;;;;;;;16.60;3.03;;;5.00;99.90;;;;;;5054949;28;20041;-77
2022/12/30 04:32:51;;;;;;;17.13;3.88;;;5.00;99.90;;;;;;5053962;28;20048;-78
2022/12/30 04:35:17;;;;;;;22.77;3.20;;;5.10;99.90;;;;;;5051464;28;20037;-77
2022/12/30 04:37:42;;;;;;;20.65;3.30;;;5.10;99.90;;;;;;5035873;28;20044;-77
2022/12/30 04:40:09;;;;;;;18.58;2.80;;;5.10;99.90;;;;;;5038006;28;20048;-76
2022/12/30 04:42:34;;;;;;;18.85;3.67;;;5.10;99.90;;;;;;5050882;28;20563;-77
2022/12/30 04:45:00;;;;;;;14.80;2.80;;;6.10;99.90;;;;;;5051940;28;20044;-76
2022/12/30 04:47:26;;;;;;;19.48;2.85;;;5.30;99.90;;;;;;5056037;28;20115;-76
2022/12/30 04:49:51;;;;;;;14.82;2.53;;;5.30;99.90;;;;;;5047577;28;20108;-77
2022/12/30 04:52:17;;;;;;;21.20;3.17;;;5.10;99.90;;;;;;5032064;28;20095;-77
2022/12/30 04:54:43;;;;;;;17.67;2.58;;;5.10;99.90;;;;;;5050056;28;20091;-78
2022/12/30 04:57:08;;;;;;;15.38;2.40;;;5.10;99.90;;;;;;5047264;28;20394;-77
2022/12/30 04:59:34;;;;;;;22.58;2.80;;;6.10;99.90;;;;;;5047097;28;20045;-78
2022/12/30 05:02:00;;;;;;;13.48;3.03;;;5.10;99.90;;;;;;5023961;28;20057;-78
2022/12/30 05:04:26;;;;;;;14.00;3.20;;;5.00;99.90;;;;;;5040962;28;20080;-78
2022/12/30 05:06:53;;;;;;;22.38;3.83;;;5.10;99.90;;;;;;5031858;28;20122;-78
2022/12/30 05:09:18;;;;;;;21.83;3.40;;;5.10;99.90;;;;;;5042326;28;20030;-78
2022/12/30 05:11:45;;;;;;;14.57;2.33;;;5.20;99.90;;;;;;5048374;28;20044;-77
2022/12/30 05:14:10;;;;;;;9.52;3.30;;;5.10;99.90;;;;;;5062041;28;20123;-77
2022/12/30 05:16:36;;;;;;;15.82;3.65;;;5.20;99.90;;;;;;5041248;28;20232;-76
2022/12/30 05:19:02;;;;;;;11.32;3.38;;;5.60;99.90;;;;;;5049363;28;20051;-78
2022/12/30 05:21:28;;;;;;;11.10;4.00;;;5.20;99.90;;;;;;5048973;28;20481;-76
2022/12/30 05:26:38;;;;;;;19.98;5.07;;;5.20;99.90;;;;;;5045941;28;20037;-76
2022/12/30 05:29:03;;;;;;;18.42;5.72;;;5.10;99.90;;;;;;5047635;28;20067;-77
2022/12/30 05:31:29;;;;;;;23.13;5.90;;;5.20;99.90;;;;;;5081282;28;20119;-77
2022/12/30 05:33:55;;;;;;;16.50;5.68;;;5.20;99.90;;;;;;5045546;28;20670;-78
2022/12/30 05:36:20;;;;;;;22.63;5.25;;;6.90;99.90;;;;;;5065095;28;20098;-80
2022/12/30 05:38:46;;;;;;;19.23;4.18;;;4.80;99.90;;;;;;5045872;28;20966;-77
2022/12/30 05:41:12;;;;;;;18.83;4.85;;;6.70;99.90;;;;;;5030770;28;20040;-78
2022/12/30 05:43:38;;;;;;;13.60;4.88;;;5.40;99.90;;;;;;5031011;28;20071;-77
2022/12/30 05:46:04;;;;;;;13.82;4.97;;;6.50;99.90;;;;;;5029826;28;20086;-77
2022/12/30 05:48:30;;;;;;;16.88;5.63;;;6.30;99.90;;;;;;5069287;28;20041;-77
2022/12/30 05:50:59;;;;;;;22.15;5.40;;;5.10;99.90;;;;;;5054177;28;20568;-77
2022/12/30 05:53:25;;;;;;;20.42;4.63;;;6.40;99.90;;;;;;5050525;28;20131;-77
2022/12/30 05:55:52;;;;;;;18.67;5.00;;;5.70;99.90;;;;;;5048228;28;20041;-76
2022/12/30 05:58:18;;;;;;;15.23;5.40;;;5.10;99.90;;;;;;5034098;28;20048;-78
2022/12/30 06:00:44;;;;;;;25.20;5.53;;;6.70;99.90;;;;;;5041612;28;20033;-77
2022/12/30 06:03:10;;;;;;;13.48;4.10;;;5.10;99.90;;;;;;5077200;28;20128;-78
2022/12/30 06:05:35;;;;;;;17.73;4.25;;;5.10;99.90;;;;;;5047285;28;20049;-78
2022/12/30 06:08:01;;;;;;;16.90;3.40;;;5.10;99.90;;;;;;5045522;28;20060;-77
2022/12/30 06:10:27;;;;;;;13.20;3.33;;;5.00;99.90;;;;;;5047021;28;20040;-77
2022/12/30 06:12:52;;;;;;;16.77;3.80;;;5.00;99.90;;;;;;5029975;28;20560;-76
2022/12/30 06:15:18;;;;;;;14.13;4.00;;;5.00;99.90;;;;;;5030106;28;20045;-77
2022/12/30 06:17:43;;;;;;;13.63;3.63;;;5.00;99.90;;;;;;5047119;28;20437;-77
2022/12/30 06:20:10;;;;;;;12.75;4.20;;;4.30;99.90;;;;;;5044940;28;20076;-77
2022/12/30 06:22:35;;;;;;;17.80;3.33;;;5.00;99.90;;;;;;5038702;28;20530;-76
2022/12/30 06:25:02;;;;;;;10.40;2.83;;;4.50;99.90;;;;;;5041988;28;20032;-76
2022/12/30 06:27:27;;;;;;;15.07;3.45;;;5.00;99.90;;;;;;5030040;28;20040;-76
2022/12/30 06:29:53;;;;;;;17.98;3.50;;;5.60;99.90;;;;;;5046164;28;20058;-77
2022/12/30 06:32:19;;;;;;;15.45;3.38;;;4.80;99.90;;;;;;5047032;28;20045;-77
2022/12/30 06:34:44;;;;;;;14.43;2.38;;;4.80;99.90;;;;;;5029750;28;20033;-77
2022/12/30 06:37:10;;;;;;;16.98;2.75;;;4.80;99.90;;;;;;5046118;28;20056;-78
2022/12/30 06:39:36;;;;;;;18.15;3.40;;;4.80;99.90;;;;;;5044933;28;20496;-76
2022/12/30 06:42:01;;;;;;;8.88;3.38;;;5.70;99.90;;;;;;5044452;28;20169;-76
2022/12/30 06:44:27;;;;;;;16.42;4.32;;;4.70;99.90;;;;;;5046787;28;20037;-77
2022/12/30 06:46:52;;;;;;;14.93;3.00;;;6.20;99.90;;;;;;5048071;28;20457;-77
2022/12/30 06:49:18;;;;;;;22.15;3.10;;;4.70;99.90;;;;;;5045215;28;20527;-76
2022/12/30 06:51:44;;;;;;;17.17;3.25;;;4.70;99.90;;;;;;5046688;28;20445;-77
2022/12/30 06:54:09;;;;;;;14.60;3.65;;;4.60;99.90;;;;;;5046148;28;20049;-76
2022/12/30 06:56:35;;;;;;;15.50;3.22;;;6.20;99.90;;;;;;5079548;28;20092;-76
2022/12/30 06:59:00;;;;;;;14.48;3.50;;;6.40;99.90;;;;;;5031468;28;20059;-76
2022/12/30 07:01:26;;;;;;;16.17;3.15;;;4.60;99.90;;;;;;5049756;28;20040;-77
2022/12/30 07:03:52;;;;;;;12.07;2.25;;;4.70;99.90;;;;;;5047800;28;20192;-77
2022/12/30 07:06:18;;;;;;;16.13;3.30;;;4.60;99.90;;;;;;5046674;28;20069;-77
2022/12/30 07:08:43;;;;;;;9.40;2.53;;;4.60;99.90;;;;;;5029084;28;20404;-78
2022/12/30 07:11:09;;;;;;;18.48;3.13;;;4.50;99.90;;;;;;5078924;28;20425;-77
2022/12/30 07:13:35;;;;;;;19.45;3.92;;;4.60;99.90;;;;;;5031237;28;20053;-76
2022/12/30 07:16:00;;;;;;;16.40;3.20;;;4.60;99.90;;;;;;5077375;28;20044;-76
2022/12/30 07:18:26;;;;;;;20.00;2.58;;;6.00;99.90;;;;;;5029144;28;20052;-76
2022/12/30 07:20:51;;;;;;;16.27;3.03;;;4.60;99.90;;;;;;5045888;28;20036;-76
2022/12/30 07:23:17;;;;;;;12.27;2.78;;;4.50;99.90;;;;;;5028567;28;20048;-76
2022/12/30 07:25:45;;;;;;;19.20;3.20;;;4.60;99.90;;;;;;5047438;28;20076;-78
2022/12/30 07:28:11;;;;;;;14.73;2.80;;;4.60;99.90;;;;;;5049684;28;20083;-77
2022/12/30 07:30:37;;;;;;;13.55;2.63;;;4.50;99.90;;;;;;5049239;28;20076;-78
2022/12/30 07:33:02;;;;;;;12.63;2.13;;;4.60;99.90;;;;;;5025440;28;20056;-78
2022/12/30 07:35:28;;;;;;;16.15;2.60;;;4.60;99.90;;;;;;5050789;28;20055;-78
2022/12/30 07:37:54;;;;;;;13.70;2.63;;;4.50;99.90;;;;;;5050571;28;20044;-77
2022/12/30 07:40:20;;;;;;;9.23;2.20;;;4.50;99.90;;;;;;5050147;28;20041;-76
2022/12/30 07:42:45;;;;;;;9.85;2.13;;;4.50;99.90;;;;;;5046165;28;20106;-77
2022/12/30 07:45:11;;;;;;;26.92;10.88;;;4.60;99.90;;;;;;5032422;28;20561;-77
2022/12/30 07:47:37;;;;;;;12.98;3.25;;;5.60;99.90;;;;;;5051203;28;20041;-77
2022/12/30 07:50:05;;;;;;;16.77;2.42;;;4.50;99.90;;;;;;5048285;28;20426;-77
2022/12/30 07:52:31;;;;;;;15.48;2.75;;;4.60;99.90;;;;;;5048756;28;20045;-77
2022/12/30 07:54:57;;;;;;;19.60;2.03;;;4.60;99.90;;;;;;5049368;28;20045;-77
2022/12/30 07:57:23;;;;;;;9.85;2.10;;;4.60;99.90;;;;;;5049150;28;20109;-77
2022/12/30 07:59:48;;;;;;;15.50;2.72;;;4.60;99.90;;;;;;5032489;28;20048;-77
2022/12/30 08:02:14;;;;;;;15.90;2.30;;;4.50;99.90;;;;;;5046910;28;20040;-77
2022/12/30 08:04:40;;;;;;;13.80;2.33;;;4.40;99.90;;;;;;5031776;28;20535;-77
2022/12/30 08:07:05;;;;;;;12.52;2.40;;;6.60;99.90;;;;;;5048299;28;20131;-78
2022/12/30 08:09:31;;;;;;;15.38;3.10;;;4.50;99.90;;;;;;5058723;28;20036;-77
2022/12/30 08:11:57;;;;;;;16.23;2.20;;;5.50;99.90;;;;;;5030718;28;20044;-77
2022/12/30 08:14:22;;;;;;;17.48;2.45;;;4.40;99.90;;;;;;5030365;28;20036;-76
2022/12/30 08:16:48;;;;;;;15.63;2.55;;;4.50;99.90;;;;;;5050498;28;20106;-76
2022/12/30 08:19:14;;;;;;;11.90;2.60;;;4.80;99.90;;;;;;5049190;28;20044;-76
2022/12/30 08:21:40;;;;;;;13.43;2.53;;;4.50;99.90;;;;;;5031599;28;20045;-76
2022/12/30 08:24:05;;;;;;;11.80;2.63;;;4.50;99.90;;;;;;5047852;28;20044;-76
2022/12/30 08:26:31;;;;;;;18.85;2.60;;;4.50;99.90;;;;;;5049675;28;20049;-76
2022/12/30 08:28:57;;;;;;;21.65;3.13;;;4.80;99.90;;;;;;5048764;28;20039;-76
2022/12/30 08:31:27;;;;;;;14.35;2.08;;;4.40;99.90;;;;;;5082017;28;20045;-76
2022/12/30 08:33:54;;;;;;;15.95;2.42;;;5.70;99.90;;;;;;5048038;28;20044;-76
2022/12/30 08:36:22;;;;;;;11.43;2.40;;;4.50;99.90;;;;;;5050261;28;20057;-78
2022/12/30 08:38:54;;;;;;;14.90;2.63;;;4.50;99.90;;;;;;5050454;28;20042;-76
2022/12/30 08:41:32;;;;;;;13.75;2.40;;;4.50;99.90;;;;;;5044920;28;20037;-77
2022/12/30 08:43:58;;;;;;;12.95;2.88;;;5.70;99.90;;;;;;5044539;28;20063;-78
2022/12/30 08:46:27;;;;;;;13.73;2.72;;;4.30;99.90;;;;;;5080379;28;20041;-76
2022/12/30 08:48:53;;;;;;;12.18;3.00;;;4.50;99.90;;;;;;5042637;28;20037;-76
2022/12/30 08:51:19;;;;;;;17.88;2.90;;;4.40;99.90;;;;;;5048509;28;20041;-76
2022/12/30 08:53:45;;;;;;;18.15;2.70;;;6.30;99.90;;;;;;5049190;28;20033;-76
2022/12/30 08:56:22;;;;;;;12.80;2.60;;;4.50;99.90;;;;;;5047180;28;20124;-76
2022/12/30 08:58:48;;;;;;;21.05;4.05;;;4.50;99.90;;;;;;5044720;28;20063;-77
2022/12/30 09:01:24;;;;;;;14.98;3.10;;;4.50;99.90;;;;;;5047456;28;20488;-76
2022/12/30 09:03:51;;;;;;;17.92;3.15;;;4.60;99.90;;;;;;5045224;28;20059;-76
2022/12/30 09:06:19;;;;;;;9.20;2.30;;;4.60;99.90;;;;;;5047875;28;20052;-76
2022/12/30 09:08:45;;;;;;;12.57;2.85;;;6.40;99.90;;;;;;5030193;28;20045;-76
2022/12/30 09:11:14;;;;;;;14.15;2.33;;;4.70;99.90;;;;;;5049641;28;20393;-76
2022/12/30 09:13:40;;;;;;;13.82;1.88;;;4.30;99.90;;;;;;5030215;28;20120;-76
2022/12/30 09:16:11;;;;;;;14.73;2.05;;;4.70;99.90;;;;;;5041998;28;20448;-77
2022/12/30 09:18:37;;;;;;;18.52;3.08;;;6.40;99.90;;;;;;5081341;28;20174;-76
2022/12/30 09:21:03;;;;;;;11.32;2.65;;;4.70;99.90;;;;;;5048331;28;20499;-78
2022/12/30 09:23:29;;;;;;;9.07;2.35;;;4.80;99.90;;;;;;5046941;28;20061;-77
2022/12/30 09:25:56;;;;;;;12.35;2.47;;;4.80;99.90;;;;;;5048122;28;20473;-77
2022/12/30 09:28:22;;;;;;;14.07;2.60;;;6.30;99.90;;;;;;5080401;28;20068;-77
2022/12/30 09:30:47;;;;;;;13.48;2.67;;;5.90;99.90;;;;;;5061523;28;20225;-76
2022/12/30 09:33:13;;;;;;;13.43;2.35;;;5.20;99.90;;;;;;5047994;28;20497;-76
2022/12/30 09:35:39;;;;;;;11.35;1.90;;;6.90;99.90;;;;;;5030561;28;20041;-76
2022/12/30 09:38:05;;;;;;;14.25;1.88;;;6.30;99.90;;;;;;5029584;28;20044;-76
2022/12/30 09:41:00;;;;;;;10.32;2.00;;;4.90;99.90;;;;;;5047510;28;20397;-76
2022/12/30 09:44:07;;;;;;;12.95;2.25;;;4.90;99.90;;;;;;5029449;28;20120;-76
2022/12/30 09:46:40;;;;;;;8.40;1.98;;;5.00;99.90;;;;;;5025339;28;20131;-76
2022/12/30 09:49:29;;;;;;;16.20;2.30;;;5.60;99.90;;;;;;5038186;28;20086;-79
2022/12/30 09:52:25;;;;;;;10.50;1.77;;;5.10;99.90;;;;;;5053410;28;20037;-75
2022/12/30 09:55:05;;;;;;;8.88;1.88;;;7.00;99.90;;;;;;5082894;28;20052;-75
2022/12/30 09:57:35;;;;;;;10.43;2.00;;;5.70;99.90;;;;;;5040833;28;20438;-76
2022/12/30 10:00:15;;;;;;;9.75;1.85;;;5.20;99.90;;;;;;5040979;28;20374;-76
2022/12/30 10:03:03;;;;;;;14.48;2.05;;;5.20;99.90;;;;;;5024260;28;20041;-79
2022/12/30 10:05:45;;;;;;;16.74;2.22;;;5.30;99.90;;;;;;4326863;28;10022495;-78
2022/12/30 10:08:20;;;;;;;9.85;2.25;;;5.30;99.90;;;;;;5038196;28;20147;-77
2022/12/30 10:11:02;;;;;;;11.80;3.22;;;7.00;99.90;;;;;;5019390;28;20045;-77
2022/12/30 10:13:44;;;;;;;13.60;2.28;;;5.40;99.90;;;;;;5040049;28;20060;-77
2022/12/30 10:16:28;;;;;;;8.48;2.10;;;5.40;99.90;;;;;;5038822;28;20045;-78
2022/12/30 10:19:26;;;;;;;7.85;1.60;;;5.40;99.90;;;;;;5042100;28;20059;-79
2022/12/30 10:22:16;;;;;;;10.90;2.15;;;5.40;99.90;;;;;;4692866;28;9999716;-77
2022/12/30 10:25:07;;;;;;;9.43;2.20;;;5.50;99.90;;;;;;5070471;28;20049;-77
2022/12/30 10:27:45;;;;;;;9.10;2.30;;;5.60;99.90;;;;;;5039924;28;20516;-77
2022/12/30 10:30:14;;;;;;;12.00;2.13;;;5.60;99.90;;;;;;5027788;28;20392;-77
2022/12/30 10:32:50;;;;;;;10.18;1.92;;;6.80;99.90;;;;;;5042490;28;20071;-77
2022/12/30 10:35:22;;;;;;;8.15;2.25;;;5.70;99.90;;;;;;5036126;28;20063;-77
2022/12/30 10:37:55;;;;;;;6.20;1.60;;;5.70;99.90;;;;;;5019735;28;20045;-77
2022/12/30 10:40:28;;;;;;;13.77;2.65;;;5.70;99.90;;;;;;5019618;28;20041;-78
2022/12/30 10:43:34;;;;;;;12.60;2.88;;;6.00;99.90;;;;;;5038171;28;20132;-78
2022/12/30 10:46:28;;;;;;;10.90;2.45;;;5.80;99.90;;;;;;4991726;28;20068;-78
2022/12/30 10:49:24;;;;;;;8.65;1.73;;;5.90;99.90;;;;;;5068587;28;20063;-77
2022/12/30 10:51:50;;;;;;;10.20;2.25;;;5.90;99.90;;;;;;5019398;28;20559;-78
2022/12/30 10:54:15;;;;;;;8.48;1.77;;;6.00;99.90;;;;;;5037449;28;20045;-77
2022/12/30 10:56:42;;;;;;;7.80;1.77;;;6.00;99.90;;;;;;5036961;28;20120;-76
2022/12/30 10:59:14;;;;;;;7.78;2.17;;;7.80;99.90;;;;;;5042071;28;20056;-77
2022/12/30 11:01:42;;;;;;;8.77;1.80;;;6.00;99.90;;;;;;5044781;28;20036;-77
2022/12/30 11:04:36;;;;;;;9.02;1.73;;;6.00;99.90;;;;;;5066737;28;20041;-76
2022/12/30 11:07:04;;;;;;;8.00;1.48;;;6.10;99.90;;;;;;5048631;28;20063;-76
2022/12/30 11:09:30;;;;;;;13.63;2.05;;;7.60;99.90;;;;;;5026175;28;20041;-76
2022/12/30 11:14:54;;;;;;;11.63;2.25;;;6.20;99.90;;;;;;5044265;28;20049;-76
2022/12/30 11:17:26;;;;;;;15.20;1.88;;;7.80;99.90;;;;;;5047543;28;20056;-76
2022/12/30 11:20:02;;;;;;;8.90;2.10;;;6.10;99.90;;;;;;5040863;28;20063;-76
2022/12/30 11:22:28;;;;;;;4.60;0.98;;;6.20;99.90;;;;;;5020865;28;20060;-76
2022/12/30 11:24:54;;;;;;;7.88;1.13;;;6.20;99.90;;;;;;5038942;28;20068;-76
2022/12/30 11:27:41;;;;;;;8.40;1.60;;;6.20;99.90;;;;;;5031048;28;20441;-75
2022/12/30 11:30:22;;;;;;;8.57;1.65;;;6.20;99.90;;;;;;5028414;28;20571;-76
2022/12/30 11:32:48;;;;;;;9.57;1.50;;;6.30;99.90;;;;;;5041256;28;20436;-81
2022/12/30 11:35:33;;;;;;;7.65;1.35;;;6.40;99.90;;;;;;5042080;28;20055;-76
2022/12/30 11:37:58;;;;;;;;;;;6.50;99.90;;;;;;5047838;28;20041;-77
2022/12/30 11:40:31;;;;;;;4.97;1.05;;;6.50;99.90;;;;;;5033460;28;19936;-77
2022/12/30 11:43:23;;;;;;;13.48;1.77;;;6.50;99.90;;;;;;5051107;28;20063;-77
2022/12/30 11:45:54;;;;;;;8.15;1.65;;;6.50;99.90;;;;;;5047232;28;20056;-76
2022/12/30 11:48:43;;;;;;;8.77;1.13;;;5.10;99.90;;;;;;5049837;28;20095;-77
2022/12/30 11:51:21;;;;;;;4.72;1.08;;;6.50;99.90;;;;;;5043118;28;20080;-77
2022/12/30 11:53:49;;;;;;;11.55;1.40;;;6.60;99.90;;;;;;5051245;28;20045;-77
2022/12/30 11:56:22;;;;;;;2.97;0.88;;;7.00;99.90;;;;;;5049703;28;20041;-76
2022/12/30 11:58:49;;;;;;;4.13;0.80;;;6.70;99.90;;;;;;5030185;28;20052;-77
2022/12/30 12:01:14;;;;;;;7.45;1.20;;;6.70;99.90;;;;;;5050944;28;20033;-77
2022/12/30 12:03:49;;;;;;;7.57;1.15;;;7.70;99.90;;;;;;5046333;28;20154;-76
2022/12/30 12:06:16;;;;;;;7.28;1.08;;;6.70;99.90;;;;;;5074511;28;20033;-76
2022/12/30 12:08:56;;;;;;;6.15;0.82;;;6.80;99.90;;;;;;5033081;28;20048;-77
2022/12/30 12:11:51;;;;;;;9.63;1.23;;;6.80;99.90;;;;;;5074512;28;20033;-76
2022/12/30 12:14:22;;;;;;;;;;;6.80;99.90;;;;;;5032596;28;20053;-76
2022/12/30 12:17:12;;;;;;;4.30;1.45;;;6.80;99.90;;;;;;5048834;28;19928;-76
2022/12/30 12:19:53;;;;;;;5.60;1.10;;;6.80;99.90;;;;;;5041525;28;20041;-76
2022/12/30 12:22:32;;;;;;;8.52;1.20;;;6.90;99.90;;;;;;5045175;28;20053;-77
2022/12/30 12:25:09;;;;;;;5.40;0.85;;;6.90;99.90;;;;;;5049744;28;20052;-77
2022/12/30 12:27:34;;;;;;;5.78;0.77;;;8.20;99.90;;;;;;5032316;28;20051;-76
2022/12/30 12:30:00;;;;;;;6.90;1.02;;;7.80;99.90;;;;;;5053563;28;20037;-76
2022/12/30 12:33:10;;;;;;;12.52;2.08;;;6.90;99.90;;;;;;5032113;28;20802;-77
2022/12/30 12:35:44;;;;;;;6.30;1.08;;;7.00;99.90;;;;;;4996951;28;20046;-77
2022/12/30 12:38:43;;;;;;;5.63;0.93;;;7.10;99.90;;;;;;5033685;28;20108;-76
2022/12/30 12:41:33;;;;;;;9.77;1.40;;;7.10;99.90;;;;;;5048705;28;20041;-77
2022/12/30 12:44:20;;;;;;;8.15;1.13;;;7.20;99.90;;;;;;5050178;28;20044;-77
2022/12/30 12:47:37;;;;;;;5.82;1.60;;;7.20;99.90;;;;;;5043516;28;20726;-77
2022/12/30 12:50:26;;;;;;;4.13;1.23;;;7.20;99.90;;;;;;5055889;28;20064;-76
2022/12/30 12:53:33;;;;;;;4.45;1.02;;;7.20;99.90;;;;;;5047032;28;20044;-77
2022/12/30 12:56:22;;;;;;;5.03;0.85;;;7.30;99.90;;;;;;5004493;28;20050;-76
2022/12/30 12:59:18;;;;;;;4.88;1.10;;;7.60;99.90;;;;;;5075720;28;20398;-77
2022/12/30 13:01:57;;;;;;;5.80;1.50;;;7.30;99.90;;;;;;5027230;28;20178;-77
2022/12/30 13:04:50;;;;;;;4.90;0.98;;;7.40;99.90;;;;;;5031337;28;20045;-77
2022/12/30 13:07:51;;;;;;;6.05;2.10;;;7.40;99.90;;;;;;5030317;28;20041;-76
2022/12/30 13:10:25;;;;;;;5.53;0.98;;;7.40;99.90;;;;;;5039417;28;20052;-76
2022/12/30 13:12:58;;;;;;;7.47;1.35;;;7.50;99.90;;;;;;5048502;28;20527;-76
2022/12/30 13:15:31;;;;;;;6.72;1.27;;;7.50;99.90;;;;;;5049679;28;20132;-77
2022/12/30 13:18:00;;;;;;;4.10;1.40;;;9.10;99.90;;;;;;5048030;28;20133;-76
2022/12/30 13:20:32;;;;;;;6.72;1.38;;;7.50;99.90;;;;;;5030599;28;20043;-76
2022/12/30 13:23:02;;;;;;;5.97;1.05;;;7.50;99.90;;;;;;5030052;28;20072;-77
2022/12/30 13:25:33;;;;;;;5.18;1.23;;;7.60;99.90;;;;;;5047283;28;20054;-77
2022/12/30 13:28:01;;;;;;;5.78;1.33;;;7.60;99.90;;;;;;5030261;28;20171;-77
2022/12/30 13:30:35;;;;;;;6.43;1.88;;;7.60;99.90;;;;;;5048152;28;20045;-77
2022/12/30 13:33:02;;;;;;;5.15;1.42;;;7.60;99.90;;;;;;5042170;28;20052;-79
2022/12/30 13:35:47;;;;;;;4.38;1.10;;;7.60;99.90;;;;;;5056053;28;20040;-76
2022/12/30 13:38:31;;;;;;;7.43;1.25;;;8.50;99.90;;;;;;5069940;28;20049;-77
2022/12/30 13:41:21;;;;;;;12.48;1.67;;;7.70;99.90;;;;;;5038303;28;20500;-77
2022/12/30 13:43:53;;;;;;;3.35;0.85;;;7.80;99.90;;;;;;5022911;28;20649;-76
2022/12/30 13:46:21;;;;;;;5.55;1.30;;;7.70;99.90;;;;;;5023230;28;20477;-77
2022/12/30 13:49:05;;;;;;;6.30;1.80;;;7.80;99.90;;;;;;5028340;28;20037;-77
2022/12/30 13:51:31;;;;;;;6.88;1.42;;;7.80;99.90;;;;;;5039647;28;20042;-77
2022/12/30 13:54:16;;;;;;;6.55;0.90;;;7.90;99.90;;;;;;4331984;28;10001306;-77
2022/12/30 13:56:43;;;;;;;;;;;8.10;99.90;;;;;;5019715;28;20056;-76
2022/12/30 13:59:34;;;;;;;4.68;1.00;;;7.90;99.90;;;;;;5040440;28;19920;-76
2022/12/30 14:02:18;;;;;;;5.60;1.20;;;7.90;99.90;;;;;;5040642;28;20053;-76
2022/12/30 14:04:49;;;;;;;4.82;1.10;;;9.50;99.90;;;;;;5039948;28;20049;-76
2022/12/30 14:07:37;;;;;;;4.97;1.10;;;8.00;99.90;;;;;;5021847;28;20037;-77
2022/12/30 14:10:15;;;;;;;6.85;1.75;;;8.00;99.90;;;;;;5038938;28;20099;-76